Search for airport 
image banner adimage banner adimage banner ad
image banner ad

KBVI - Beaver County

Located in Beaver Falls, United States

ICAO - BVI, IATA - BFP

Data provided by Airmate  

General information

Coordinates: N40°46'21" W80°23'29"
Elevation is 1253 feet MSL.
Magnetic variation is -07° East
View others Airports in Pennsylvania

Operational data

Special qualification required
Current time UTC:
Current local time:
Weather
METAR: KBVI 132015Z AUTO 29004KT 10SM SCT055 SCT070 30/21 A2984 RMK AO2 LTG DSNT S T03000209
TAF: KBVI 131720Z 1318/1418 29004KT P6SM VCTS BKN050CB TEMPO 1318/1321 4SM -TSRA OVC040CB FM132300 32004KT P6SM SCT070 FM141500 26007KT P6SM SCT060
View NOTAMs / SUP AIP / TFR affecting this airport [VIEW]
Communications frequencies: [VIEW]

Runways:

RWY identifierQFULength (ft)Width (ft)SurfaceLDA (ft)
1094°4501100ASPH
28274°4501100ASPH

Airport contact information

Address: Beaver Falls United States

Other aviation service providers

Flight schools

Moore Aviation, Inc.

Moore Aviation, Inc.
info@mooreaviation.com+1(724)843-4800

Aviation Certification And Education Solutions Inc

Aviation Certification And Education Solutions Inc
fly@acesbvi.com+1(724)891-2237

Satellite view of KBVI